Time;durP1;ratioP1;P1;durP2;ratioP2;P2;SDS_P1;SDS_P2;PMS_P1;PMS_P2;Temp;Humidity;BMP_temperature;BMP_pressure;BME280_temperature;BME280_humidity;BME280_pressure;Samples;Min_cycle;Max_cycle;Signal;HPM_P1;HPM_P2
2021/11/25 00:00:57;;;;;;;;;;;8.80;73.60;;;;;;5022305;28;83880;-70
2021/11/25 00:03:23;;;;;;;;;;;8.90;73.60;;;;;;5020957;28;83019;-70
2021/11/25 00:05:48;;;;;;;;;;;8.80;73.60;;;;;;5022261;28;84034;-70
2021/11/25 00:08:14;;;;;;;;;;;8.80;73.70;;;;;;5025612;28;82374;-69
2021/11/25 00:10:41;;;;;;;;;;;8.80;73.60;;;;;;5025976;28;83007;-70
2021/11/25 00:13:06;;;;;;;;;;;8.80;73.50;;;;;;5022719;28;83513;-70
2021/11/25 00:15:32;;;;;;;;;;;8.80;73.40;;;;;;5023094;28;82091;-70
2021/11/25 00:17:58;;;;;;;;;;;8.80;73.50;;;;;;5024111;28;82459;-70
2021/11/25 00:20:24;;;;;;;;;;;8.80;73.70;;;;;;5026616;28;82664;-70
2021/11/25 00:22:49;;;;;;;;;;;8.80;73.60;;;;;;5021672;28;83159;-70
2021/11/25 00:25:15;;;;;;;;;;;8.70;73.70;;;;;;5021258;28;82584;-70
2021/11/25 00:27:41;;;;;;;;;;;8.70;73.60;;;;;;5025217;28;83067;-69
2021/11/25 00:30:07;;;;;;;;;;;8.70;73.70;;;;;;5025992;28;82892;-70
2021/11/25 00:32:33;;;;;;;;;;;8.70;74.00;;;;;;5023642;28;82503;-70
2021/11/25 00:34:59;;;;;;;;;;;8.70;74.00;;;;;;5023287;28;82116;-70
2021/11/25 00:37:24;;;;;;;;;;;8.60;74.00;;;;;;5022802;28;82304;-70
2021/11/25 00:39:50;;;;;;;;;;;8.60;73.80;;;;;;5021989;28;82133;-70
2021/11/25 00:42:16;;;;;;;;;;;8.60;74.00;;;;;;5023766;28;82067;-70
2021/11/25 00:44:41;;;;;;;;;;;8.60;73.90;;;;;;5021491;28;82888;-70
2021/11/25 00:47:07;;;;;;;;;;;8.60;74.20;;;;;;5021035;28;82165;-70
2021/11/25 00:49:32;;;;;;;;;;;8.50;74.00;;;;;;5023399;28;84179;-69
2021/11/25 00:51:58;;;;;;;;;;;8.60;74.10;;;;;;5024907;28;83994;-70
2021/11/25 00:54:23;;;;;;;;;;;8.60;73.90;;;;;;5025319;28;82079;-69
2021/11/25 00:56:49;;;;;;;;;;;8.60;73.80;;;;;;5025378;28;84011;-68
2021/11/25 00:59:15;;;;;;;;;;;8.50;74.10;;;;;;5024715;28;82098;-69
2021/11/25 01:01:40;;;;;;;;;;;8.50;74.20;;;;;;5027009;28;82251;-70
2021/11/25 01:04:06;;;;;;;;;;;8.50;74.20;;;;;;5023118;28;83271;-69
2021/11/25 01:06:32;;;;;;;;;;;8.50;74.00;;;;;;5022230;28;82092;-70
2021/11/25 01:08:57;;;;;;;;;;;8.50;74.00;;;;;;5021828;28;82114;-69
2021/11/25 01:11:25;;;;;;;;;;;8.50;74.10;;;;;;5021925;28;82424;-69
2021/11/25 01:13:51;;;;;;;;;;;8.50;74.00;;;;;;5021103;28;83586;-70
2021/11/25 01:16:17;;;;;;;;;;;8.50;74.30;;;;;;5019724;28;83937;-70
2021/11/25 01:18:43;;;;;;;;;;;8.50;74.20;;;;;;5020993;28;83255;-70
2021/11/25 01:21:08;;;;;;;;;;;8.40;74.30;;;;;;5022275;28;82113;-69
2021/11/25 01:23:34;;;;;;;;;;;8.40;74.10;;;;;;5026061;28;82483;-69
2021/11/25 01:26:00;;;;;;;;;;;8.50;74.30;;;;;;5024499;28;82082;-68
2021/11/25 01:28:26;;;;;;;;;;;8.40;74.30;;;;;;5023953;28;83890;-69
2021/11/25 01:30:54;;;;;;;;;;;8.40;74.40;;;;;;5023592;28;83038;-69
2021/11/25 01:33:20;;;;;;;;;;;8.40;74.30;;;;;;5022143;28;81376;-69
2021/11/25 01:35:46;;;;;;;;;;;8.40;74.50;;;;;;5020203;28;83187;-69
2021/11/25 01:38:12;;;;;;;;;;;8.40;74.50;;;;;;5021561;28;83511;-69
2021/11/25 01:40:40;;;;;;;;;;;8.30;74.40;;;;;;5020102;28;83735;-69
2021/11/25 01:43:06;;;;;;;;;;;8.40;74.40;;;;;;5023148;28;83315;-69
2021/11/25 01:45:31;;;;;;;;;;;8.30;74.40;;;;;;5023986;28;82594;-69
2021/11/25 01:47:57;;;;;;;;;;;8.30;74.50;;;;;;5021349;28;82089;-69
2021/11/25 01:50:24;;;;;;;;;;;8.30;74.50;;;;;;5021967;28;82239;-69
2021/11/25 01:52:49;;;;;;;;;;;8.30;74.30;;;;;;5022063;28;82204;-69
2021/11/25 01:55:16;;;;;;;;;;;8.30;74.40;;;;;;5022389;28;82157;-69
2021/11/25 01:57:41;;;;;;;;;;;8.30;74.70;;;;;;5021795;28;83234;-69
2021/11/25 02:00:10;;;;;;;;;;;8.30;74.50;;;;;;5022701;28;82060;-69
2021/11/25 02:02:37;;;;;;;;;;;8.30;74.40;;;;;;5019648;28;83059;-69
2021/11/25 02:05:02;;;;;;;;;;;8.20;74.50;;;;;;5022930;28;84597;-70
2021/11/25 02:07:28;;;;;;;;;;;8.20;74.60;;;;;;5026913;28;83197;-70
2021/11/25 02:09:53;;;;;;;;;;;8.20;74.70;;;;;;5020936;28;82707;-70
2021/11/25 02:12:20;;;;;;;;;;;8.20;74.70;;;;;;5020359;28;82093;-69
2021/11/25 02:14:46;;;;;;;;;;;8.30;74.50;;;;;;5019289;28;84061;-68
2021/11/25 02:17:12;;;;;;;;;;;8.20;74.60;;;;;;5019411;28;84165;-69
2021/11/25 02:19:37;;;;;;;;;;;8.20;74.50;;;;;;5019820;28;82067;-70
2021/11/25 02:22:03;;;;;;;;;;;8.20;74.70;;;;;;5021490;28;81921;-69
2021/11/25 02:24:31;;;;;;;;;;;8.20;74.90;;;;;;5020158;28;83098;-70
2021/11/25 02:26:57;;;;;;;;;;;8.10;74.70;;;;;;5023109;28;82112;-69
2021/11/25 02:29:22;;;;;;;;;;;8.20;75.40;;;;;;5024751;28;83061;-69
2021/11/25 02:31:49;;;;;;;;;;;8.10;74.80;;;;;;5021808;28;82198;-69
2021/11/25 02:34:15;;;;;;;;;;;8.10;74.90;;;;;;5019073;28;83092;-69
2021/11/25 02:36:40;;;;;;;;;;;8.10;75.10;;;;;;5020699;28;83562;-69
2021/11/25 02:39:06;;;;;;;;;;;8.10;74.70;;;;;;5019826;28;82080;-69
2021/11/25 02:41:32;;;;;;;;;;;8.10;74.80;;;;;;5019248;28;82327;-69
2021/11/25 02:43:57;;;;;;;;;;;8.10;74.80;;;;;;5019376;28;82783;-69
2021/11/25 02:46:23;;;;;;;;;;;8.10;74.80;;;;;;5020768;28;81363;-69
2021/11/25 02:48:50;;;;;;;;;;;8.10;74.90;;;;;;5021494;28;82109;-69
2021/11/25 02:51:20;;;;;;;;;;;8.10;74.90;;;;;;5023076;28;82136;-69
2021/11/25 02:53:47;;;;;;;;;;;8.00;75.00;;;;;;5022156;28;83037;-69
2021/11/25 02:56:14;;;;;;;;;;;8.00;74.90;;;;;;5021804;28;84294;-69
2021/11/25 02:58:40;;;;;;;;;;;8.00;74.90;;;;;;5022905;28;82055;-69
2021/11/25 03:01:08;;;;;;;;;;;8.10;74.90;;;;;;5022628;28;83942;-70
2021/11/25 03:03:34;;;;;;;;;;;8.00;75.10;;;;;;5026206;28;82452;-69
2021/11/25 03:05:59;;;;;;;;;;;8.00;74.90;;;;;;5025574;28;82123;-70
2021/11/25 03:08:25;;;;;;;;;;;8.00;74.90;;;;;;5026470;28;82061;-69
2021/11/25 03:10:58;;;;;;;;;;;8.00;75.00;;;;;;5029792;28;81564;-69
2021/11/25 03:13:24;;;;;;;;;;;8.00;75.10;;;;;;5022977;28;82190;-69
2021/11/25 03:15:50;;;;;;;;;;;8.00;75.10;;;;;;5023344;28;83835;-69
2021/11/25 03:18:15;;;;;;;;;;;8.00;75.00;;;;;;5026186;28;83051;-69
2021/11/25 03:20:43;;;;;;;;;;;8.00;75.00;;;;;;5027404;28;83044;-68
2021/11/25 03:23:09;;;;;;;;;;;8.00;74.90;;;;;;5023993;28;84803;-69
2021/11/25 03:25:35;;;;;;;;;;;8.00;74.90;;;;;;5023384;28;82085;-69
2021/11/25 03:28:00;;;;;;;;;;;7.90;74.90;;;;;;5022981;28;82125;-69
2021/11/25 03:30:26;;;;;;;;;;;8.00;74.90;;;;;;5023775;28;82106;-69
2021/11/25 03:32:51;;;;;;;;;;;8.00;74.80;;;;;;5027932;28;82132;-69
2021/11/25 03:35:17;;;;;;;;;;;8.00;74.90;;;;;;5026398;28;81966;-68
2021/11/25 03:37:43;;;;;;;;;;;8.00;75.00;;;;;;5025405;28;83682;-69
2021/11/25 03:40:09;;;;;;;;;;;8.00;75.00;;;;;;5022810;28;82541;-69
2021/11/25 03:42:35;;;;;;;;;;;7.90;74.80;;;;;;5022679;28;83589;-70
2021/11/25 03:45:00;;;;;;;;;;;7.90;74.90;;;;;;5022557;28;82132;-69
2021/11/25 03:47:26;;;;;;;;;;;7.90;74.90;;;;;;5023580;28;83054;-70
2021/11/25 03:49:51;;;;;;;;;;;7.90;74.70;;;;;;5024520;28;84615;-69
2021/11/25 03:52:17;;;;;;;;;;;7.90;74.80;;;;;;5026163;28;82131;-69
2021/11/25 03:54:43;;;;;;;;;;;7.90;75.10;;;;;;5027481;28;83760;-69
2021/11/25 03:57:08;;;;;;;;;;;7.90;75.10;;;;;;5022123;28;83969;-69
2021/11/25 03:59:34;;;;;;;;;;;7.90;75.10;;;;;;5023684;28;82346;-69
2021/11/25 04:02:00;;;;;;;;;;;7.80;75.00;;;;;;5022052;28;84965;-69
2021/11/25 04:04:25;;;;;;;;;;;7.90;75.00;;;;;;5023369;28;82232;-69
2021/11/25 04:06:51;;;;;;;;;;;7.80;75.00;;;;;;5023301;28;83060;-69
2021/11/25 04:09:16;;;;;;;;;;;7.90;74.90;;;;;;5023045;28;83295;-69
2021/11/25 04:11:42;;;;;;;;;;;7.80;74.80;;;;;;5024101;28;82136;-69
2021/11/25 04:14:07;;;;;;;;;;;7.80;74.80;;;;;;5025524;28;82165;-68
2021/11/25 04:16:33;;;;;;;;;;;7.80;74.80;;;;;;5027730;28;83770;-69
2021/11/25 04:18:59;;;;;;;;;;;7.80;74.80;;;;;;5021969;28;83061;-69
2021/11/25 04:21:24;;;;;;;;;;;7.80;74.80;;;;;;5021767;28;83105;-69
2021/11/25 04:23:50;;;;;;;;;;;7.80;74.70;;;;;;5023290;28;81358;-69
2021/11/25 04:26:16;;;;;;;;;;;7.80;74.70;;;;;;5023679;28;82124;-69
2021/11/25 04:28:41;;;;;;;;;;;7.80;74.80;;;;;;5024703;28;82664;-69
2021/11/25 04:36:35;;;;;;;;;;;7.80;74.70;;;;;;5024481;28;82213;-69
2021/11/25 04:39:01;;;;;;;;;;;7.70;74.70;;;;;;5028505;28;82143;-69
2021/11/25 04:41:27;;;;;;;;;;;7.70;74.60;;;;;;5024901;28;84340;-70
2021/11/25 04:43:53;;;;;;;;;;;7.80;74.60;;;;;;5023239;28;82140;-69
2021/11/25 04:46:18;;;;;;;;;;;7.80;75.10;;;;;;5022684;28;82227;-70
2021/11/25 04:48:44;;;;;;;;;;;7.70;74.60;;;;;;5022012;28;83822;-69
2021/11/25 04:51:10;;;;;;;;;;;7.70;74.50;;;;;;5020953;28;82094;-69
2021/11/25 04:53:35;;;;;;;;;;;7.70;74.60;;;;;;5021650;28;82142;-69
2021/11/25 04:56:01;;;;;;;;;;;7.70;74.70;;;;;;5021852;28;83622;-70
2021/11/25 04:58:26;;;;;;;;;;;7.70;74.60;;;;;;5023847;28;82084;-69
2021/11/25 05:00:52;;;;;;;;;;;7.70;74.60;;;;;;5027518;28;82787;-68
2021/11/25 05:03:18;;;;;;;;;;;7.70;74.70;;;;;;5023833;28;82329;-69
2021/11/25 05:05:44;;;;;;;;;;;7.70;74.50;;;;;;5022503;28;83713;-69
2021/11/25 05:08:09;;;;;;;;;;;7.70;74.50;;;;;;5020884;28;83274;-69
2021/11/25 05:10:35;;;;;;;;;;;7.70;74.60;;;;;;5021493;28;82181;-69
2021/11/25 05:13:01;;;;;;;;;;;7.60;74.50;;;;;;5021608;28;82629;-69
2021/11/25 05:15:27;;;;;;;;;;;7.60;74.40;;;;;;5021871;28;82217;-69
2021/11/25 05:17:52;;;;;;;;;;;7.70;74.40;;;;;;5023300;28;82116;-69
2021/11/25 05:20:18;;;;;;;;;;;7.70;74.30;;;;;;5023942;28;83053;-70
2021/11/25 05:22:44;;;;;;;;;;;7.70;74.40;;;;;;5021770;28;82121;-70
2021/11/25 05:25:11;;;;;;;;;;;7.70;74.30;;;;;;5022039;28;82425;-69
2021/11/25 05:27:36;;;;;;;;;;;7.60;74.20;;;;;;5020934;28;82664;-70
2021/11/25 05:30:03;;;;;;;;;;;7.60;74.30;;;;;;5020058;28;82171;-70
2021/11/25 05:32:28;;;;;;;;;;;7.60;74.30;;;;;;5024121;28;84294;-70
2021/11/25 05:34:54;;;;;;;;;;;7.60;74.30;;;;;;5020810;28;83345;-69
2021/11/25 05:37:19;;;;;;;;;;;7.60;74.20;;;;;;5021542;28;81402;-69
2021/11/25 05:39:45;;;;;;;;;;;7.60;74.30;;;;;;5021959;28;82108;-69
2021/11/25 05:42:11;;;;;;;;;;;7.60;74.30;;;;;;5024898;28;84051;-70
2021/11/25 05:44:37;;;;;;;;;;;7.60;74.40;;;;;;5022627;28;83066;-69
2021/11/25 05:47:03;;;;;;;;;;;7.60;74.40;;;;;;5023711;28;83391;-69
2021/11/25 05:49:29;;;;;;;;;;;7.60;74.40;;;;;;5023893;28;82101;-69
2021/11/25 05:51:54;;;;;;;;;;;7.60;74.40;;;;;;5024239;28;82469;-69
2021/11/25 05:54:20;;;;;;;;;;;7.60;74.40;;;;;;5023294;28;82802;-70
2021/11/25 05:56:46;;;;;;;;;;;7.60;74.40;;;;;;5020104;28;83403;-70
2021/11/25 05:59:11;;;;;;;;;;;7.60;74.30;;;;;;5020575;28;82293;-69
2021/11/25 06:01:37;;;;;;;;;;;7.60;74.40;;;;;;5022091;28;81644;-69
2021/11/25 06:04:03;;;;;;;;;;;7.50;74.50;;;;;;5025681;28;82096;-69
2021/11/25 06:06:28;;;;;;;;;;;7.50;74.40;;;;;;5023854;28;83045;-69
2021/11/25 06:08:54;;;;;;;;;;;7.60;74.40;;;;;;5022273;28;83717;-70
2021/11/25 06:11:19;;;;;;;;;;;7.60;74.30;;;;;;5019911;28;83638;-70
2021/11/25 06:13:45;;;;;;;;;;;7.50;74.30;;;;;;5020530;28;82993;-70
2021/11/25 06:16:11;;;;;;;;;;;7.50;74.30;;;;;;5021735;28;82079;-70
2021/11/25 06:18:37;;;;;;;;;;;7.50;74.30;;;;;;5021790;28;82630;-70
2021/11/25 06:21:02;;;;;;;;;;;7.50;74.30;;;;;;5021504;28;83226;-70
2021/11/25 06:23:28;;;;;;;;;;;7.50;74.30;;;;;;5022627;28;82139;-69
2021/11/25 06:25:54;;;;;;;;;;;7.50;74.40;;;;;;5026751;28;82013;-69
2021/11/25 06:28:19;;;;;;;;;;;7.50;74.30;;;;;;5022979;28;83720;-69
2021/11/25 06:30:45;;;;;;;;;;;7.50;74.40;;;;;;5019615;28;83771;-70
2021/11/25 06:33:11;;;;;;;;;;;7.50;74.40;;;;;;5021158;28;84430;-70
2021/11/25 06:35:36;;;;;;;;;;;7.50;74.30;;;;;;5023072;28;82134;-69
2021/11/25 06:38:02;;;;;;;;;;;7.50;74.30;;;;;;5023467;28;84145;-69
2021/11/25 06:40:29;;;;;;;;;;;7.50;74.40;;;;;;5023625;28;82837;-69
2021/11/25 06:42:55;;;;;;;;;;;7.50;74.40;;;;;;5022882;28;82150;-70
2021/11/25 06:45:21;;;;;;;;;;;7.50;74.40;;;;;;5023037;28;82149;-69
2021/11/25 06:47:47;;;;;;;;;;;7.50;74.40;;;;;;5026014;28;82979;-69
2021/11/25 06:50:14;;;;;;;;;;;7.50;74.40;;;;;;5024047;28;83706;-70
2021/11/25 06:52:39;;;;;;;;;;;7.50;74.50;;;;;;5023234;28;83136;-70
2021/11/25 06:55:05;;;;;;;;;;;7.40;74.50;;;;;;5020235;28;83781;-70
2021/11/25 06:57:31;;;;;;;;;;;7.40;74.60;;;;;;5018615;28;83893;-70
2021/11/25 06:59:57;;;;;;;;;;;7.40;74.50;;;;;;5019684;28;82728;-70
2021/11/25 07:02:23;;;;;;;;;;;7.40;74.70;;;;;;5019901;28;82148;-70
2021/11/25 07:04:48;;;;;;;;;;;7.30;74.80;;;;;;5021115;28;82641;-70
2021/11/25 07:07:14;;;;;;;;;;;7.30;74.70;;;;;;5022227;28;82664;-70
2021/11/25 07:09:39;;;;;;;;;;;7.40;74.80;;;;;;5026327;28;82115;-69
2021/11/25 07:12:05;;;;;;;;;;;7.30;74.80;;;;;;5020581;28;83681;-70
2021/11/25 07:14:31;;;;;;;;;;;7.30;74.70;;;;;;5022270;28;83144;-70
2021/11/25 07:16:57;;;;;;;;;;;7.30;74.90;;;;;;5018766;28;83511;-70
2021/11/25 07:19:22;;;;;;;;;;;7.30;75.00;;;;;;5019274;28;82386;-70
2021/11/25 07:21:48;;;;;;;;;;;7.20;75.00;;;;;;5019701;28;83006;-70
2021/11/25 07:24:13;;;;;;;;;;;7.30;75.10;;;;;;5021564;28;83292;-70
2021/11/25 07:26:39;;;;;;;;;;;7.20;75.40;;;;;;5022618;28;82648;-70
2021/11/25 07:29:05;;;;;;;;;;;7.30;75.00;;;;;;5025694;28;82745;-70
2021/11/25 07:31:32;;;;;;;;;;;7.20;75.20;;;;;;5023174;28;82538;-69
2021/11/25 07:33:58;;;;;;;;;;;7.20;75.50;;;;;;5019460;28;82087;-70
2021/11/25 07:36:24;;;;;;;;;;;7.20;75.30;;;;;;5018272;28;82264;-70
2021/11/25 07:38:49;;;;;;;;;;;7.20;75.10;;;;;;5019655;28;82649;-70
2021/11/25 07:41:16;;;;;;;;;;;7.30;75.10;;;;;;5018872;28;82813;-70
2021/11/25 07:43:41;;;;;;;;;;;7.20;75.20;;;;;;5020941;28;82231;-70
2021/11/25 07:46:07;;;;;;;;;;;7.20;75.10;;;;;;5022358;28;83920;-70
2021/11/25 07:48:32;;;;;;;;;;;7.20;75.20;;;;;;5024110;28;82129;-70
2021/11/25 07:50:59;;;;;;;;;;;7.10;75.40;;;;;;5027916;28;82117;-70
2021/11/25 07:53:25;;;;;;;;;;;7.20;75.70;;;;;;5025307;28;82095;-70
2021/11/25 07:55:50;;;;;;;;;;;7.10;75.50;;;;;;5025845;28;83886;-69
2021/11/25 07:58:16;;;;;;;;;;;7.10;75.30;;;;;;5026225;28;84347;-70
2021/11/25 08:00:42;;;;;;;;;;;7.10;75.40;;;;;;5025820;28;83240;-70
2021/11/25 08:03:07;;;;;;;;;;;7.10;75.60;;;;;;5023485;28;84569;-71
2021/11/25 08:05:33;;;;;;;;;;;7.10;75.70;;;;;;5021100;28;83915;-70
2021/11/25 08:07:58;;;;;;;;;;;7.10;75.30;;;;;;5022271;28;82191;-70
2021/11/25 08:10:25;;;;;;;;;;;7.10;75.70;;;;;;5022633;28;83048;-70
2021/11/25 08:12:51;;;;;;;;;;;7.10;75.50;;;;;;5025033;28;83195;-70
2021/11/25 08:15:17;;;;;;;;;;;7.10;75.60;;;;;;5023386;28;82401;-70
2021/11/25 08:17:43;;;;;;;;;;;7.10;75.70;;;;;;5023842;28;83673;-70
2021/11/25 08:20:09;;;;;;;;;;;7.10;75.70;;;;;;5025157;28;82131;-70
2021/11/25 08:22:35;;;;;;;;;;;7.10;75.60;;;;;;5025194;28;82152;-70
2021/11/25 08:25:02;;;;;;;;;;;7.10;75.60;;;;;;5025415;28;82426;-71
2021/11/25 08:27:28;;;;;;;;;;;7.10;75.70;;;;;;5024275;28;81375;-71
2021/11/25 08:29:54;;;;;;;;;;;7.10;75.50;;;;;;5022991;28;82144;-70
2021/11/25 08:32:19;;;;;;;;;;;7.10;75.70;;;;;;5021586;28;83146;-70
2021/11/25 08:34:45;;;;;;;;;;;7.10;75.70;;;;;;5023300;28;83163;-70
2021/11/25 08:37:11;;;;;;;;;;;7.10;75.60;;;;;;5022002;28;83371;-70
2021/11/25 08:39:37;;;;;;;;;;;7.10;75.70;;;;;;5023434;28;82125;-70
2021/11/25 08:42:03;;;;;;;;;;;7.10;75.70;;;;;;5023497;28;82157;-70
2021/11/25 08:44:29;;;;;;;;;;;7.10;75.70;;;;;;5023025;28;84261;-70
2021/11/25 08:46:54;;;;;;;;;;;7.10;75.70;;;;;;5024494;28;82098;-70
2021/11/25 08:49:20;;;;;;;;;;;7.10;75.70;;;;;;5024523;28;82457;-70
2021/11/25 08:51:46;;;;;;;;;;;7.10;75.80;;;;;;5023964;28;81924;-70
2021/11/25 08:54:11;;;;;;;;;;;7.10;75.70;;;;;;5024186;28;82191;-70
2021/11/25 08:56:37;;;;;;;;;;;7.10;75.70;;;;;;5027823;28;82285;-70
2021/11/25 08:59:02;;;;;;;;;;;7.00;75.70;;;;;;5024658;28;83136;-69
2021/11/25 09:01:28;;;;;;;;;;;7.10;75.80;;;;;;5024835;28;83370;-69
2021/11/25 09:03:53;;;;;;;;;;;7.00;75.70;;;;;;5024216;28;83568;-70
2021/11/25 09:06:20;;;;;;;;;;;7.10;75.70;;;;;;5021238;28;83290;-70
2021/11/25 09:08:45;;;;;;;;;;;7.10;75.90;;;;;;5020741;28;84159;-70
2021/11/25 09:11:11;;;;;;;;;;;7.00;75.80;;;;;;5021832;28;82470;-70
2021/11/25 09:13:36;;;;;;;;;;;7.00;75.90;;;;;;5023167;28;82193;-70
2021/11/25 09:16:02;;;;;;;;;;;7.00;75.90;;;;;;5026939;28;81935;-70
2021/11/25 09:18:28;;;;;;;;;;;7.00;75.90;;;;;;5025179;28;82104;-69
2021/11/25 09:20:53;;;;;;;;;;;7.10;75.90;;;;;;5022664;28;82236;-70
2021/11/25 09:23:19;;;;;;;;;;;7.00;75.90;;;;;;5024178;28;85608;-69
2021/11/25 09:25:45;;;;;;;;;;;7.00;75.90;;;;;;5024969;28;83811;-70
2021/11/25 09:28:18;;;;;;;;;;;7.00;75.80;;;;;;5024859;28;83578;-69
2021/11/25 09:30:45;;;;;;;;;;;7.10;76.00;;;;;;5022346;28;82543;-69
2021/11/25 09:33:11;;;;;;;;;;;7.00;75.90;;;;;;5020633;28;82114;-70
2021/11/25 09:35:37;;;;;;;;;;;7.00;75.80;;;;;;5020314;28;83342;-70
2021/11/25 09:38:03;;;;;;;;;;;7.10;75.90;;;;;;5023798;28;82727;-70
2021/11/25 09:40:28;;;;;;;;;;;7.10;75.80;;;;;;5022113;28;83847;-70
2021/11/25 09:42:58;;;;;;;;;;;7.00;75.90;;;;;;5020881;28;84878;-70
2021/11/25 09:45:24;;;;;;;;;;;7.10;75.90;;;;;;5021453;28;82194;-70
2021/11/25 09:47:51;;;;;;;;;;;7.10;75.90;;;;;;5019733;28;83693;-70
2021/11/25 09:50:18;;;;;;;;;;;7.00;75.80;;;;;;5020935;28;83679;-70
2021/11/25 09:52:44;;;;;;;;;;;7.00;75.80;;;;;;5023255;28;82202;-70
2021/11/25 09:55:09;;;;;;;;;;;7.00;76.50;;;;;;5020430;28;83953;-70
2021/11/25 09:57:35;;;;;;;;;;;7.00;76.00;;;;;;5020415;28;84298;-70
2021/11/25 10:00:00;;;;;;;;;;;7.10;75.90;;;;;;5024560;28;82108;-70
2021/11/25 10:02:26;;;;;;;;;;;7.10;75.80;;;;;;5022924;28;82654;-69
2021/11/25 10:04:52;;;;;;;;;;;7.10;75.70;;;;;;5024498;28;81435;-69
2021/11/25 10:07:31;;;;;;;;;;;7.10;75.80;;;;;;5022106;28;83441;-70
2021/11/25 10:09:56;;;;;;;;;;;7.10;75.70;;;;;;5021611;28;84616;-70
2021/11/25 10:12:36;;;;;;;;;;;7.10;75.70;;;;;;5022418;28;83055;-69
2021/11/25 10:15:22;;;;;;;;;;;7.10;75.70;;;;;;5022706;28;84725;-70
2021/11/25 10:17:48;;;;;;;;;;;7.00;75.90;;;;;;5022406;28;83161;-69
2021/11/25 10:20:18;;;;;;;;;;;7.10;75.80;;;;;;5023944;28;82069;-69
2021/11/25 10:23:03;;;;;;;;;;;7.10;75.90;;;;;;5022902;28;83672;-70
2021/11/25 10:25:40;;;;;;;;;;;7.10;75.70;;;;;;5022460;28;82084;-69
2021/11/25 10:28:07;;;;;;;;;;;7.00;76.00;;;;;;5020873;28;82186;-70
2021/11/25 10:30:36;;;;;;;;;;;7.10;75.90;;;;;;5020119;28;83844;-69
2021/11/25 10:33:02;;;;;;;;;;;7.00;75.90;;;;;;5020982;28;82178;-69
2021/11/25 10:35:34;;;;;;;;;;;7.10;75.90;;;;;;5021606;28;82740;-69
2021/11/25 10:40:33;;;;;;;;;;;7.10;75.90;;;;;;5020430;28;82105;-70
2021/11/25 10:42:59;;;;;;;;;;;7.10;75.80;;;;;;5019757;28;82219;-69
2021/11/25 10:45:24;;;;;;;;;;;7.10;75.80;;;;;;5022071;28;83565;-70
2021/11/25 10:48:04;;;;;;;;;;;7.10;75.70;;;;;;5020358;28;82166;-70
2021/11/25 10:50:31;;;;;;;;;;;7.10;76.10;;;;;;5022094;28;84473;-69
2021/11/25 10:53:01;;;;;;;;;;;7.10;75.80;;;;;;5022156;28;82199;-69
2021/11/25 10:55:27;;;;;;;;;;;7.00;75.90;;;;;;5024200;28;82517;-70
2021/11/25 10:58:01;;;;;;;;;;;7.10;76.50;;;;;;5020765;28;83003;-69
2021/11/25 11:00:28;;;;;;;;;;;7.10;75.90;;;;;;5020990;28;82129;-69
2021/11/25 11:03:09;;;;;;;;;;;7.00;76.20;;;;;;5019663;28;83109;-70
2021/11/25 11:05:45;;;;;;;;;;;7.10;75.80;;;;;;5021112;28;82931;-70
2021/11/25 11:08:10;;;;;;;;;;;7.10;76.20;;;;;;5025317;28;82137;-69
2021/11/25 11:10:37;;;;;;;;;;;7.00;76.10;;;;;;5023423;28;84300;-70
2021/11/25 11:19:02;;;;;;;;;;;7.10;76.00;;;;;;5024565;28;83397;-70
2021/11/25 11:21:29;;;;;;;;;;;7.10;76.00;;;;;;5015605;28;81496;-68
2021/11/25 11:23:55;;;;;;;;;;;7.10;76.00;;;;;;5026240;28;82197;-68
2021/11/25 11:26:21;;;;;;;;;;;7.10;76.10;;;;;;5025791;28;82059;-68
2021/11/25 11:28:46;;;;;;;;;;;7.10;75.80;;;;;;5028918;28;83726;-70
2021/11/25 11:31:12;;;;;;;;;;;7.20;75.90;;;;;;5023271;28;82866;-70
2021/11/25 11:33:38;;;;;;;;;;;7.10;75.90;;;;;;5022577;28;82095;-69
2021/11/25 11:36:04;;;;;;;;;;;7.10;75.80;;;;;;5022901;28;82148;-70
2021/11/25 11:38:32;;;;;;;;;;;7.10;76.00;;;;;;5023711;28;84529;-70
2021/11/25 11:40:58;;;;;;;;;;;7.20;75.80;;;;;;5022317;28;83460;-70
2021/11/25 11:43:24;;;;;;;;;;;7.10;76.00;;;;;;5022440;28;82088;-70
2021/11/25 11:45:51;;;;;;;;;;;7.20;76.10;;;;;;5023719;28;81829;-70
2021/11/25 11:48:17;;;;;;;;;;;7.20;76.10;;;;;;5022720;28;82113;-70
2021/11/25 11:50:44;;;;;;;;;;;7.20;75.90;;;;;;5025635;28;83872;-70
2021/11/25 11:53:13;;;;;;;;;;;7.10;76.60;;;;;;5022060;28;83148;-71
2021/11/25 11:55:41;;;;;;;;;;;7.10;76.10;;;;;;5024548;28;84951;-70
2021/11/25 11:58:24;;;;;;;;;;;7.10;76.00;;;;;;5021721;28;82929;-70
2021/11/25 12:00:50;;;;;;;;;;;7.10;76.20;;;;;;5024497;28;82068;-70
2021/11/25 12:03:48;;;;;;;;;;;7.10;76.30;;;;;;5022655;28;82166;-71
2021/11/25 12:06:34;;;;;;;;;;;7.10;76.30;;;;;;5013743;28;83083;-70
2021/11/25 12:09:01;;;;;;;;;;;7.20;76.20;;;;;;5023213;28;83499;-70
2021/11/25 12:11:43;;;;;;;;;;;7.20;76.30;;;;;;5024318;28;83008;-71
2021/11/25 12:14:19;;;;;;;;;;;7.10;76.20;;;;;;5027964;28;83536;-71
2021/11/25 12:16:46;;;;;;;;;;;7.10;76.20;;;;;;5023925;28;83593;-70
2021/11/25 12:19:12;;;;;;;;;;;7.10;76.30;;;;;;5025129;28;85329;-69
2021/11/25 12:21:37;;;;;;;;;;;7.10;76.40;;;;;;5023540;28;82893;-70
2021/11/25 12:24:20;;;;;;;;;;;7.10;76.50;;;;;;5021863;28;82547;-70
2021/11/25 12:26:54;;;;;;;;;;;7.10;76.40;;;;;;5024291;28;84382;-70
2021/11/25 12:29:32;;;;;;;;;;;7.20;76.30;;;;;;5020851;28;82105;-70
2021/11/25 12:32:26;;;;;;;;;;;7.20;76.50;;;;;;5023747;28;82122;-70
2021/11/25 12:34:55;;;;;;;;;;;7.20;76.40;;;;;;5024275;28;84816;-70
2021/11/25 12:37:40;;;;;;;;;;;7.20;76.40;;;;;;5025845;28;81411;-71
2021/11/25 12:40:05;;;;;;;;;;;7.20;76.20;;;;;;5025455;28;82501;-70
2021/11/25 12:42:31;;;;;;;;;;;7.20;76.60;;;;;;5023214;28;82097;-70
2021/11/25 12:44:56;;;;;;;;;;;7.10;76.40;;;;;;5022869;28;83851;-69
2021/11/25 12:47:22;;;;;;;;;;;7.20;76.50;;;;;;5025632;28;84362;-70
2021/11/25 12:49:48;;;;;;;;;;;7.10;76.60;;;;;;5025277;28;82197;-69
2021/11/25 12:52:32;;;;;;;;;;;7.10;76.40;;;;;;5024484;28;82553;-69
2021/11/25 12:55:04;;;;;;;;;;;7.20;76.40;;;;;;5023019;28;82197;-70
2021/11/25 12:57:50;;;;;;;;;;;7.10;76.50;;;;;;5025243;28;82237;-69
2021/11/25 13:00:19;;;;;;;;;;;7.20;76.60;;;;;;5024268;28;84274;-70
2021/11/25 13:02:44;;;;;;;;;;;7.10;76.70;;;;;;5022787;28;81467;-69
2021/11/25 13:05:10;;;;;;;;;;;7.10;76.60;;;;;;5023187;28;83180;-70
2021/11/25 13:07:48;;;;;;;;;;;7.10;76.80;;;;;;5024016;28;84241;-69
2021/11/25 13:10:21;;;;;;;;;;;7.10;76.80;;;;;;5019980;28;83072;-69
2021/11/25 13:12:47;;;;;;;;;;;7.10;76.90;;;;;;5025183;28;84292;-69
2021/11/25 13:15:13;;;;;;;;;;;7.10;76.90;;;;;;5022138;28;83891;-70
2021/11/25 13:17:52;;;;;;;;;;;7.10;76.90;;;;;;5020442;28;83167;-70
2021/11/25 13:20:18;;;;;;;;;;;7.10;76.90;;;;;;5023045;28;82117;-70
2021/11/25 13:22:43;;;;;;;;;;;7.10;76.80;;;;;;5025021;28;83367;-70
2021/11/25 13:25:09;;;;;;;;;;;7.10;76.90;;;;;;5023194;28;82469;-70
2021/11/25 13:27:34;;;;;;;;;;;7.10;76.90;;;;;;5023934;28;82455;-70
2021/11/25 13:30:02;;;;;;;;;;;7.10;76.90;;;;;;5023058;28;82100;-70
2021/11/25 13:32:30;;;;;;;;;;;7.20;77.00;;;;;;5020015;28;82327;-70
2021/11/25 13:34:56;;;;;;;;;;;7.20;77.00;;;;;;5022689;28;85309;-69
2021/11/25 13:37:23;;;;;;;;;;;7.20;77.00;;;;;;5023080;28;82078;-69
2021/11/25 13:40:00;;;;;;;;;;;7.20;77.00;;;;;;5021785;28;83818;-70
2021/11/25 13:42:30;;;;;;;;;;;7.10;77.00;;;;;;5024616;28;83359;-70
2021/11/25 13:44:56;;;;;;;;;;;7.10;77.00;;;;;;5023137;28;82124;-69
2021/11/25 13:47:23;;;;;;;;;;;7.10;76.90;;;;;;5023100;28;83241;-70
2021/11/25 13:49:53;;;;;;;;;;;7.20;77.00;;;;;;5021796;28;82130;-70
2021/11/25 13:52:20;;;;;;;;;;;7.20;77.30;;;;;;5023783;28;82967;-70
2021/11/25 13:54:46;;;;;;;;;;;7.20;76.90;;;;;;5022210;28;83222;-70
2021/11/25 13:57:16;;;;;;;;;;;7.20;76.90;;;;;;5022634;28;82096;-70
2021/11/25 13:59:42;;;;;;;;;;;7.20;77.20;;;;;;5023960;28;83595;-70
2021/11/25 14:02:08;;;;;;;;;;;7.20;76.80;;;;;;5023666;28;83570;-70
2021/11/25 14:04:34;;;;;;;;;;;7.20;77.10;;;;;;5023820;28;83542;-70
2021/11/25 14:07:07;;;;;;;;;;;7.30;77.00;;;;;;5019720;28;83343;-70
2021/11/25 14:09:33;;;;;;;;;;;7.30;76.60;;;;;;5024099;28;82127;-70
2021/11/25 14:12:00;;;;;;;;;;;7.30;76.50;;;;;;5023123;28;84113;-72
2021/11/25 14:14:29;;;;;;;;;;;7.30;77.00;;;;;;5022301;28;83516;-56
2021/11/25 14:16:55;;;;;;;;;;;7.30;76.90;;;;;;5020795;28;81382;-65
2021/11/25 14:19:22;;;;;;;;;;;7.30;77.50;;;;;;5021489;28;82125;-66
2021/11/25 14:21:49;;;;;;;;;;;7.30;78.10;;;;;;5020281;28;82215;-65
2021/11/25 14:24:16;;;;;;;;;;;7.40;77.30;;;;;;5019288;28;83069;-75
2021/11/25 14:30:16;;;;;;;;;;;7.30;78.10;;;;;;5020188;28;82133;-68
2021/11/25 14:32:20;;;;;;;;;;;7.40;77.50;;;;;;5019649;28;82265;-61
2021/11/25 14:34:48;;;;;;;;;;;7.50;77.60;;;;;;5019205;28;83317;-63
2021/11/25 14:37:14;;;;;;;;;;;7.50;77.30;;;;;;5021625;28;82896;-62
2021/11/25 14:39:40;;;;;;;;;;;7.70;78.50;;;;;;5022256;28;83801;-65
2021/11/25 14:42:06;;;;;;;;;;;8.40;77.00;;;;;;5019515;28;81406;-63
2021/11/25 14:44:32;;;;;;;;;;;9.20;75.10;;;;;;5022784;28;83100;-61
2021/11/25 14:47:03;;;;;;;;;;;9.80;73.70;;;;;;5024050;28;82119;-63